createdAt,value
2022-09-15T00:01:16.067Z,95689.16
2022-09-15T00:03:44.217Z,95678.66
2022-09-15T00:06:12.988Z,95677.63
2022-09-15T00:08:41.327Z,95674.97
2022-09-15T00:11:11.703Z,95675.78
2022-09-15T00:13:40.818Z,95678.28
2022-09-15T00:16:14.994Z,95673.31
2022-09-15T00:18:44.192Z,95684.84
2022-09-15T00:21:14.284Z,95678.47
2022-09-15T00:23:42.293Z,95678.28
2022-09-15T00:26:12.554Z,95663.47
2022-09-15T00:28:41.445Z,95671.66
2022-09-15T00:31:14.550Z,95660.78
2022-09-15T00:33:43.534Z,95667.53
2022-09-15T00:36:14.507Z,95661.19
2022-09-15T00:38:42.999Z,95656.44
2022-09-15T00:41:15.515Z,95658.50
2022-09-15T00:43:47.215Z,95666.31
2022-09-15T00:46:18.656Z,95675.34
2022-09-15T00:48:50.369Z,95668.16
2022-09-15T00:51:22.314Z,95665.50
2022-09-15T00:53:51.869Z,95661.78
2022-09-15T00:56:21.178Z,95663.47
2022-09-15T00:58:55.255Z,95660.78
2022-09-15T01:01:27.236Z,95665.09
2022-09-15T01:03:56.406Z,95670.84
2022-09-15T01:06:31.666Z,95660.16
2022-09-15T01:09:05.710Z,95662.00
2022-09-15T01:11:34.086Z,95655.19
2022-09-15T01:14:02.307Z,95663.38
2022-09-15T01:16:56.667Z,95664.84
2022-09-15T01:19:57.755Z,95661.34
2022-09-15T01:22:37.038Z,95650.47
2022-09-15T01:25:09.709Z,95659.69
2022-09-15T01:28:12.130Z,95650.84
2022-09-15T01:30:44.922Z,95644.50
2022-09-15T01:33:22.436Z,95644.25
2022-09-15T01:35:55.835Z,95648.31
2022-09-15T01:38:31.734Z,95645.25
2022-09-15T01:41:06.208Z,95649.78
2022-09-15T01:43:37.179Z,95643.59
2022-09-15T01:46:08.455Z,95643.97
2022-09-15T01:48:38.204Z,95628.31
2022-09-15T01:51:08.021Z,95646.00
2022-09-15T01:53:36.671Z,95630.81
2022-09-15T01:56:09.130Z,95629.97
2022-09-15T01:58:39.198Z,95643.16
2022-09-15T02:01:13.791Z,95636.97
2022-09-15T02:03:45.501Z,95637.97
2022-09-15T02:06:21.722Z,95639.00
2022-09-15T02:08:55.347Z,95639.84
2022-09-15T02:11:25.810Z,95642.31
2022-09-15T02:14:01.590Z,95638.63
2022-09-15T02:16:34.892Z,95626.03
2022-09-15T02:19:12.819Z,95628.72
2022-09-15T02:21:48.268Z,95627.03
2022-09-15T02:24:20.138Z,95628.25
2022-09-15T02:26:51.133Z,95634.22
2022-09-15T02:29:22.216Z,95639.00
2022-09-15T02:31:54.085Z,95643.72
2022-09-15T02:34:26.553Z,95639.19
2022-09-15T02:36:56.140Z,95639.41
2022-09-15T02:39:28.758Z,95641.03
2022-09-15T02:41:56.762Z,95634.22
2022-09-15T02:44:24.561Z,95639.56
2022-09-15T02:46:53.815Z,95626.78
2022-09-15T02:49:21.576Z,95630.28
2022-09-15T02:51:49.826Z,95623.28
2022-09-15T02:54:17.612Z,95625.78
2022-09-15T02:56:45.452Z,95623.47
2022-09-15T02:59:13.255Z,95622.22
2022-09-15T03:01:41.178Z,95617.69
2022-09-15T03:04:10.390Z,95614.56
2022-09-15T03:06:38.139Z,95619.91
2022-09-15T03:09:08.183Z,95619.91
2022-09-15T03:11:37.077Z,95627.28
2022-09-15T03:14:08.204Z,95617.63
2022-09-15T03:16:36.635Z,95621.94
2022-09-15T03:19:04.940Z,95621.28
2022-09-15T03:21:34.128Z,95620.69
2022-09-15T03:24:02.153Z,95627.66
2022-09-15T03:26:31.044Z,95627.03
2022-09-15T03:28:58.819Z,95626.38
2022-09-15T03:31:26.797Z,95618.38
2022-09-15T03:33:56.080Z,95618.75
2022-09-15T03:36:23.900Z,95617.72
2022-09-15T03:38:53.168Z,95625.13
2022-09-15T03:41:21.113Z,95619.97
2022-09-15T03:43:48.929Z,95626.69
2022-09-15T03:46:17.935Z,95637.19
2022-09-15T03:48:47.400Z,95636.16
2022-09-15T03:51:15.624Z,95639.84
2022-09-15T03:53:43.786Z,95633.69
2022-09-15T03:56:20.057Z,95637.53
2022-09-15T03:58:47.848Z,95632.41
2022-09-15T04:01:15.757Z,95634.25
2022-09-15T04:03:48.842Z,95633.59
2022-09-15T04:06:19.610Z,95641.41
2022-09-15T04:12:58.744Z,95632.97
2022-09-15T04:15:26.839Z,95622.47
2022-09-15T04:17:54.960Z,95630.28
2022-09-15T04:20:22.888Z,95635.63
2022-09-15T04:22:51.424Z,95633.13
2022-09-15T04:25:19.452Z,95621.63
2022-09-15T04:27:47.589Z,95616.31
2022-09-15T04:30:17.053Z,95619.63
2022-09-15T04:32:45.096Z,95613.63
2022-09-15T04:35:13.327Z,95620.59
2022-09-15T04:37:41.328Z,95621.63
2022-09-15T04:40:11.467Z,95621.81
2022-09-15T04:42:39.626Z,95621.81
2022-09-15T04:45:08.404Z,95625.34
2022-09-15T04:47:38.485Z,95619.31
2022-09-15T04:50:08.717Z,95617.66
2022-09-15T04:52:36.876Z,95627.31
2022-09-15T04:55:05.222Z,95622.66
2022-09-15T04:57:34.537Z,95638.69
2022-09-15T05:00:04.734Z,95636.16
2022-09-15T05:02:32.833Z,95636.03
2022-09-15T05:05:02.213Z,95631.81
2022-09-15T05:07:30.662Z,95631.19
2022-09-15T05:09:58.924Z,95639.00
2022-09-15T05:12:27.920Z,95638.34
2022-09-15T05:14:55.923Z,95650.34
2022-09-15T05:17:26.661Z,95649.38
2022-09-15T05:19:54.893Z,95649.69
2022-09-15T05:22:24.232Z,95649.50
2022-09-15T05:24:52.228Z,95645.00
2022-09-15T05:27:20.467Z,95648.69
2022-09-15T05:29:49.000Z,95648.34
2022-09-15T05:32:16.994Z,95647.66
2022-09-15T05:34:45.037Z,95645.84
2022-09-15T05:37:13.030Z,95642.31
2022-09-15T05:39:42.391Z,95651.00
2022-09-15T05:42:10.561Z,95636.84
2022-09-15T05:44:38.524Z,95643.19
2022-09-15T05:47:06.677Z,95643.81
2022-09-15T05:49:35.120Z,95644.28
2022-09-15T05:52:04.314Z,95641.63
2022-09-15T05:54:32.318Z,95641.63
2022-09-15T05:57:01.670Z,95647.59
2022-09-15T05:59:29.719Z,95646.41
2022-09-15T06:01:57.764Z,95645.19
2022-09-15T06:04:25.879Z,95639.84
2022-09-15T06:06:53.889Z,95633.88
2022-09-15T06:09:21.964Z,95640.50
2022-09-15T06:11:50.003Z,95640.13
2022-09-15T06:14:19.303Z,95644.16
2022-09-15T06:16:47.291Z,95649.97
2022-09-15T06:19:15.259Z,95645.44
2022-09-15T06:21:43.300Z,95648.31
2022-09-15T06:24:13.155Z,95654.09
2022-09-15T06:26:41.202Z,95653.06
2022-09-15T06:29:09.498Z,95655.09
2022-09-15T06:31:39.242Z,95659.44
2022-09-15T06:34:08.656Z,95662.78
2022-09-15T06:36:37.845Z,95667.06
2022-09-15T06:39:06.152Z,95667.28
2022-09-15T06:41:58.328Z,95659.44
2022-09-15T06:44:22.152Z,95669.50
2022-09-15T06:46:51.590Z,95664.78
2022-09-15T06:49:20.048Z,95668.09
2022-09-15T06:51:48.067Z,95676.75
2022-09-15T06:54:16.764Z,95682.16
2022-09-15T06:56:45.583Z,95678.66
2022-09-15T06:59:13.899Z,95677.03
2022-09-15T07:01:42.811Z,95681.34
2022-09-15T07:04:12.307Z,95686.88
2022-09-15T07:06:41.094Z,95689.72
2022-09-15T07:09:09.389Z,95687.50
2022-09-15T07:11:37.517Z,95684.41
2022-09-15T07:14:05.641Z,95689.34
2022-09-15T07:16:33.691Z,95694.06
2022-09-15T07:19:03.704Z,95689.56
2022-09-15T07:21:33.252Z,95686.69
2022-09-15T07:24:05.136Z,95688.06
2022-09-15T07:26:35.440Z,95690.38
2022-09-15T07:29:06.095Z,95694.06
2022-09-15T07:31:36.467Z,95691.38
2022-09-15T07:34:04.869Z,95694.25
2022-09-15T07:36:34.952Z,95695.25
2022-09-15T07:39:05.468Z,95700.97
2022-09-15T07:41:33.907Z,95700.41
2022-09-15T07:44:02.524Z,95701.25
2022-09-15T07:46:32.572Z,95700.59
2022-09-15T07:49:03.371Z,95713.78
2022-09-15T07:51:31.793Z,95712.09
2022-09-15T07:54:01.768Z,95714.59
2022-09-15T07:56:29.996Z,95714.59
2022-09-15T07:58:59.254Z,95716.44
2022-09-15T08:01:27.597Z,95714.78
2022-09-15T08:03:56.042Z,95719.94
2022-09-15T08:06:25.765Z,95721.31
2022-09-15T08:08:59.366Z,95723.63
2022-09-15T08:11:30.565Z,95732.84
2022-09-15T08:14:02.618Z,95722.44
2022-09-15T08:16:30.747Z,95725.66
2022-09-15T08:18:58.834Z,95720.75
2022-09-15T08:21:27.638Z,95728.84
2022-09-15T08:23:57.445Z,95735.66
2022-09-15T08:26:27.196Z,95738.91
2022-09-15T08:28:56.597Z,95740.16
2022-09-15T08:31:25.275Z,95737.31
2022-09-15T08:33:55.485Z,95741.44
2022-09-15T08:36:27.658Z,95738.13
2022-09-15T08:38:56.082Z,95742.91
2022-09-15T08:41:28.717Z,95743.94
2022-09-15T08:44:03.538Z,95735.72
2022-09-15T08:46:37.946Z,95738.38
2022-09-15T08:49:10.831Z,95749.16
2022-09-15T08:51:46.220Z,95747.94
2022-09-15T08:54:21.488Z,95752.09
2022-09-15T08:56:50.038Z,95753.75
2022-09-15T08:59:21.283Z,95751.09
2022-09-15T09:02:23.857Z,95753.75
2022-09-15T09:05:12.195Z,95754.03
2022-09-15T09:07:54.991Z,95756.94
2022-09-15T09:10:32.422Z,95759.72
2022-09-15T09:13:14.267Z,95760.78
2022-09-15T09:16:03.968Z,95761.88
2022-09-15T09:19:04.471Z,95759.88
2022-09-15T09:21:36.229Z,95759.50
2022-09-15T09:24:07.782Z,95758.19
2022-09-15T09:26:37.902Z,95760.22
2022-09-15T09:29:13.252Z,95765.94
2022-09-15T09:31:44.094Z,95760.41
2022-09-15T09:34:23.965Z,95755.91
2022-09-15T09:36:55.218Z,95750.56
2022-09-15T09:39:23.218Z,95747.88
2022-09-15T09:41:51.316Z,95754.59
2022-09-15T09:44:20.360Z,95757.34
2022-09-15T09:46:50.082Z,95744.91
2022-09-15T09:49:24.862Z,95744.34
2022-09-15T09:51:55.252Z,95741.56
2022-09-15T09:54:27.287Z,95741.66
2022-09-15T09:56:57.411Z,95744.09
2022-09-15T09:59:41.918Z,95752.69
2022-09-15T10:02:19.800Z,95752.31
2022-09-15T10:04:49.522Z,95753.13
2022-09-15T10:07:20.206Z,95757.47
2022-09-15T10:09:59.882Z,95772.91
2022-09-15T10:12:32.504Z,95756.31
2022-09-15T10:15:03.571Z,95759.00
2022-09-15T10:17:45.658Z,95759.16
2022-09-15T10:20:28.299Z,95780.06
2022-09-15T10:23:03.962Z,95762.72
2022-09-15T10:25:55.058Z,95779.00
2022-09-15T10:28:26.052Z,95774.38
2022-09-15T10:31:03.919Z,95777.88
2022-09-15T10:33:35.376Z,95783.63
2022-09-15T10:36:06.963Z,95781.59
2022-09-15T10:38:43.016Z,95782.00
2022-09-15T10:41:29.570Z,95780.56
2022-09-15T10:44:25.628Z,95784.78
2022-09-15T10:47:04.422Z,95790.81
2022-09-15T10:49:57.273Z,95789.84
2022-09-15T10:52:35.268Z,95790.25
2022-09-15T10:55:42.158Z,95804.69
2022-09-15T10:58:33.702Z,95809.44
2022-09-15T11:01:13.674Z,95811.63
2022-09-15T11:04:02.234Z,95794.69
2022-09-15T11:06:37.678Z,95803.38
2022-09-15T11:09:15.426Z,95799.06
2022-09-15T11:11:53.527Z,95798.41
2022-09-15T11:14:33.759Z,95801.25
2022-09-15T11:17:12.471Z,95811.44
2022-09-15T11:20:01.029Z,95829.78
2022-09-15T11:22:36.536Z,95823.34
2022-09-15T11:25:13.882Z,95824.19
2022-09-15T11:27:45.330Z,95822.19
2022-09-15T11:30:18.602Z,95832.41
2022-09-15T11:32:54.329Z,95839.84
2022-09-15T11:35:46.666Z,95844.56
2022-09-15T11:38:25.199Z,95846.88
2022-09-15T11:41:00.101Z,95849.06
2022-09-15T11:43:35.048Z,95847.91
2022-09-15T11:46:08.950Z,95848.88
2022-09-15T11:48:42.808Z,95858.41
2022-09-15T11:51:14.933Z,95870.03
2022-09-15T11:53:51.316Z,95870.56
2022-09-15T11:56:25.637Z,95873.19
2022-09-15T11:59:05.897Z,95872.03
2022-09-15T12:01:41.177Z,95880.47
2022-09-15T12:04:14.105Z,95888.81
2022-09-15T12:06:48.739Z,95882.56
2022-09-15T12:09:19.596Z,95899.16
2022-09-15T12:11:49.687Z,95902.84
2022-09-15T12:14:29.908Z,95904.28
2022-09-15T12:16:59.243Z,95896.81
2022-09-15T12:19:45.059Z,95903.13
2022-09-15T12:22:19.211Z,95909.09
2022-09-15T12:25:00.056Z,95903.78
2022-09-15T12:27:28.932Z,95918.44
2022-09-15T12:29:58.455Z,95909.78
2022-09-15T12:32:28.861Z,95920.13
2022-09-15T12:35:01.955Z,95920.13
2022-09-15T12:37:39.769Z,95918.47
2022-09-15T12:40:27.800Z,95920.44
2022-09-15T12:42:56.003Z,95923.75
2022-09-15T12:45:27.322Z,95925.75
2022-09-15T12:47:58.590Z,95937.13
2022-09-15T12:50:30.650Z,95932.25
2022-09-15T12:53:01.203Z,95937.72
2022-09-15T12:55:34.125Z,95928.56
2022-09-15T12:58:08.567Z,95936.84
2022-09-15T13:00:45.618Z,95925.88
2022-09-15T13:03:30.452Z,95937.34
2022-09-15T13:06:17.138Z,95938.81
2022-09-15T13:08:51.072Z,95942.81
2022-09-15T13:11:25.633Z,95942.63
2022-09-15T13:14:00.883Z,95947.69
2022-09-15T13:16:33.954Z,95935.63
2022-09-15T13:19:12.492Z,95945.66
2022-09-15T13:21:45.030Z,95935.28
2022-09-15T13:24:20.172Z,95935.97
2022-09-15T13:26:55.732Z,95942.59
2022-09-15T13:29:24.671Z,95952.66
2022-09-15T13:32:00.477Z,95954.66
2022-09-15T13:35:15.975Z,95952.31
2022-09-15T13:38:23.792Z,95947.31
2022-09-15T13:41:33.313Z,95937.97
2022-09-15T13:44:24.308Z,95944.81
2022-09-15T13:47:06.960Z,95943.31
2022-09-15T13:49:48.620Z,95939.09
2022-09-15T13:52:28.033Z,95947.09
2022-09-15T13:55:10.297Z,95938.22
2022-09-15T14:00:33.691Z,95941.72
2022-09-15T14:03:06.638Z,95949.47
2022-09-15T14:05:36.231Z,95945.56
2022-09-15T14:08:09.059Z,95953.25
2022-09-15T14:10:45.404Z,95952.22
2022-09-15T14:13:17.117Z,95949.94
2022-09-15T14:16:00.041Z,95965.19
2022-09-15T14:18:28.972Z,95961.44
2022-09-15T14:21:02.204Z,95967.19
2022-09-15T14:23:31.075Z,95959.03
2022-09-15T14:26:01.578Z,95959.53
2022-09-15T14:28:32.241Z,95965.19
2022-09-15T14:31:02.727Z,95961.03
2022-09-15T14:33:37.897Z,95965.19
2022-09-15T14:36:14.574Z,95961.09
2022-09-15T14:38:42.713Z,95960.47
2022-09-15T14:41:19.930Z,95959.75
2022-09-15T14:43:48.057Z,95954.88
2022-09-15T14:46:19.344Z,95953.34
2022-09-15T14:48:47.629Z,95946.88
2022-09-15T14:51:22.525Z,95950.31
2022-09-15T14:53:52.749Z,95944.66
2022-09-15T14:56:25.405Z,95942.78
2022-09-15T14:58:56.797Z,95950.97
2022-09-15T15:01:33.652Z,95949.47
2022-09-15T15:04:10.281Z,95944.50
2022-09-15T15:06:56.341Z,95955.19
2022-09-15T15:09:30.391Z,95947.00
2022-09-15T15:12:01.595Z,95945.50
2022-09-15T15:14:30.088Z,95944.34
2022-09-15T15:17:03.152Z,95945.84
2022-09-15T15:19:33.183Z,95954.81
2022-09-15T15:22:09.587Z,95953.81
2022-09-15T15:24:42.182Z,95956.84
2022-09-15T15:27:42.174Z,95952.47
2022-09-15T15:30:29.575Z,95951.84
2022-09-15T15:33:01.374Z,95953.94
2022-09-15T15:35:30.245Z,95957.03
2022-09-15T15:38:07.604Z,95953.16
2022-09-15T15:40:38.967Z,95954.13
2022-09-15T15:43:09.227Z,95962.53
2022-09-15T15:45:50.014Z,95964.84
2022-09-15T15:48:19.418Z,95963.19
2022-09-15T15:50:47.826Z,95964.13
2022-09-15T15:53:16.426Z,95954.81
2022-09-15T15:55:45.131Z,95964.78
2022-09-15T15:58:14.471Z,95965.50
2022-09-15T16:00:45.251Z,95968.00
2022-09-15T16:03:14.879Z,95969.19
2022-09-15T16:05:46.802Z,95971.56
2022-09-15T16:08:21.355Z,95972.16
2022-09-15T16:10:50.879Z,95965.44
2022-09-15T16:13:21.154Z,95968.53
2022-09-15T16:15:49.616Z,95967.47
2022-09-15T16:18:17.884Z,95966.28
2022-09-15T16:20:47.273Z,95963.13
2022-09-15T16:23:17.567Z,95966.44
2022-09-15T16:25:50.259Z,95966.44
2022-09-15T16:28:18.658Z,95965.25
2022-09-15T16:30:47.349Z,95971.78
2022-09-15T16:33:16.791Z,95973.78
2022-09-15T16:35:51.290Z,95977.34
2022-09-15T16:38:20.287Z,95979.03
2022-09-15T16:40:48.494Z,95977.19
2022-09-15T16:43:17.910Z,95980.38
2022-09-15T16:45:46.744Z,95980.56
2022-09-15T16:48:15.131Z,95978.38
2022-09-15T16:51:16.875Z,95975.38
2022-09-15T16:53:33.510Z,95982.56
2022-09-15T16:56:06.953Z,95986.63
2022-09-15T16:58:35.433Z,95986.13
2022-09-15T17:01:03.898Z,95982.81
2022-09-15T17:03:32.424Z,95981.31
2022-09-15T17:06:02.103Z,95992.16
2022-09-15T17:08:32.022Z,96000.16
2022-09-15T17:11:03.821Z,95995.03
2022-09-15T17:13:33.729Z,96000.06
2022-09-15T17:16:02.660Z,96000.22
2022-09-15T17:18:31.227Z,95999.41
2022-09-15T17:20:59.546Z,96000.75
2022-09-15T17:23:29.438Z,96001.72
2022-09-15T17:25:59.156Z,95997.41
2022-09-15T17:28:29.934Z,96001.25
2022-09-15T17:30:59.957Z,96001.44
2022-09-15T17:33:28.709Z,96008.13
2022-09-15T17:35:57.032Z,96007.28
2022-09-15T17:38:25.256Z,96009.28
2022-09-15T17:40:55.291Z,96008.00
2022-09-15T17:43:25.386Z,96002.66
2022-09-15T17:45:55.398Z,96001.19
2022-09-15T17:48:24.308Z,96003.84
2022-09-15T17:50:52.874Z,96002.50
2022-09-15T17:53:22.697Z,95996.69
2022-09-15T17:55:51.561Z,95999.53
2022-09-15T17:58:19.883Z,96000.53
2022-09-15T18:00:48.997Z,96000.06
2022-09-15T18:03:23.714Z,95995.91
2022-09-15T18:05:52.810Z,96001.03
2022-09-15T18:08:20.813Z,96005.56
2022-09-15T18:10:49.184Z,96008.56
2022-09-15T18:13:19.688Z,96011.41
2022-09-15T18:15:49.527Z,96011.41
2022-09-15T18:18:21.108Z,96017.56
2022-09-15T18:20:51.178Z,96010.72
2022-09-15T18:23:21.483Z,96019.75
2022-09-15T18:25:50.064Z,96017.09
2022-09-15T18:28:19.336Z,96023.41
2022-09-15T18:30:48.866Z,96026.91
2022-09-15T18:33:18.048Z,96026.06
2022-09-15T18:35:48.882Z,96028.94
2022-09-15T18:38:16.872Z,96035.91
2022-09-15T18:40:47.560Z,96036.25
2022-09-15T18:43:15.685Z,96038.25
2022-09-15T18:45:44.142Z,96042.91
2022-09-15T18:48:13.457Z,96044.09
2022-09-15T18:50:42.526Z,96042.94
2022-09-15T18:53:12.082Z,96051.59
2022-09-15T18:55:41.916Z,96047.44
2022-09-15T18:58:10.112Z,96050.09
2022-09-15T19:00:38.481Z,96051.25
2022-09-15T19:03:09.407Z,96054.44
2022-09-15T19:05:38.588Z,96052.28
2022-09-15T19:08:08.338Z,96056.78
2022-09-15T19:10:39.447Z,96057.28
2022-09-15T19:13:11.289Z,96053.44
2022-09-15T19:15:40.205Z,96056.13
2022-09-15T19:18:08.219Z,96051.28
2022-09-15T19:20:36.249Z,96053.94
2022-09-15T19:23:04.262Z,96055.94
2022-09-15T19:25:32.260Z,96053.28
2022-09-15T19:28:01.710Z,96061.59
2022-09-15T19:30:29.714Z,96059.44
2022-09-15T19:32:58.805Z,96060.94
2022-09-15T19:35:26.805Z,96057.75
2022-09-15T19:37:54.879Z,96057.28
2022-09-15T19:40:23.826Z,96062.59
2022-09-15T19:42:52.215Z,96067.59
2022-09-15T19:45:21.620Z,96061.91
2022-09-15T19:47:49.590Z,96064.22
2022-09-15T19:50:17.664Z,96069.72
2022-09-15T19:52:45.740Z,96064.56
2022-09-15T19:55:14.101Z,96068.34
2022-09-15T19:57:43.163Z,96067.84
2022-09-15T20:00:13.581Z,96072.66
2022-09-15T20:02:43.483Z,96073.44
2022-09-15T20:05:12.525Z,96076.44
2022-09-15T20:07:40.471Z,96083.56
2022-09-15T20:10:08.780Z,96084.56
2022-09-15T20:12:36.700Z,96081.56
2022-09-15T20:15:05.347Z,96083.69
2022-09-15T20:17:33.572Z,96089.50
2022-09-15T20:20:03.356Z,96085.31
2022-09-15T20:22:31.344Z,96085.16
2022-09-15T20:24:59.390Z,96086.59
2022-09-15T20:27:27.501Z,96086.09
2022-09-15T20:29:57.160Z,96089.25
2022-09-15T20:32:28.451Z,96080.25
2022-09-15T20:34:56.997Z,96084.41
2022-09-15T20:37:26.516Z,96091.00
2022-09-15T20:39:54.543Z,96088.81
2022-09-15T20:42:22.650Z,96091.81
2022-09-15T20:44:51.077Z,96083.00
2022-09-15T20:47:19.116Z,96098.75
2022-09-15T20:49:47.170Z,96093.44
2022-09-15T20:52:15.148Z,96097.59
2022-09-15T20:54:44.589Z,96097.38
2022-09-15T20:57:12.578Z,96096.84
2022-09-15T20:59:40.602Z,96093.69
2022-09-15T21:02:08.774Z,96094.97
2022-09-15T21:04:36.776Z,96098.47
2022-09-15T21:07:04.921Z,96097.59
2022-09-15T21:09:32.860Z,96107.06
2022-09-15T21:12:02.375Z,96101.22
2022-09-15T21:14:30.578Z,96100.25
2022-09-15T21:16:58.571Z,96096.69
2022-09-15T21:19:26.843Z,96097.06
2022-09-15T21:21:54.973Z,96107.69
2022-09-15T21:24:22.972Z,96103.84
2022-09-15T21:27:08.925Z,96103.16
2022-09-15T21:29:38.288Z,96110.44
2022-09-15T21:32:06.573Z,96108.31
2022-09-15T21:34:34.540Z,96105.94
2022-09-15T21:37:02.595Z,96106.94
2022-09-15T21:39:30.598Z,96114.38
2022-09-15T21:41:58.539Z,96115.38
2022-09-15T21:44:26.571Z,96123.94
2022-09-15T21:46:55.908Z,96121.59
2022-09-15T21:49:23.836Z,96121.06
2022-09-15T21:51:51.958Z,96126.91
2022-09-15T21:54:19.875Z,96121.94
2022-09-15T21:56:47.862Z,96121.50
2022-09-15T21:59:16.779Z,96116.34
2022-09-15T22:01:44.863Z,96117.19
2022-09-15T22:04:14.215Z,96111.31
2022-09-15T22:06:42.510Z,96112.47
2022-09-15T22:09:13.850Z,96113.63
2022-09-15T22:11:42.392Z,96115.44
2022-09-15T22:14:11.654Z,96120.38
2022-09-15T22:16:41.617Z,96125.13
2022-09-15T22:19:11.841Z,96119.31
2022-09-15T22:21:43.180Z,96124.25
2022-09-15T22:24:12.712Z,96124.53
2022-09-15T22:26:42.542Z,96123.47
2022-09-15T22:29:11.128Z,96120.53
2022-09-15T22:31:39.366Z,96117.31
2022-09-15T22:34:08.257Z,96124.78
2022-09-15T22:36:36.250Z,96119.34
2022-09-15T22:39:06.328Z,96127.19
2022-09-15T22:41:36.227Z,96125.50
2022-09-15T22:44:04.775Z,96127.31
2022-09-15T22:46:32.892Z,96120.34
2022-09-15T22:49:01.220Z,96126.63
2022-09-15T22:51:29.448Z,96127.31
2022-09-15T22:53:58.664Z,96122.31
2022-09-15T22:56:28.601Z,96123.00
2022-09-15T22:58:57.434Z,96119.50
2022-09-15T23:01:28.409Z,96121.31
2022-09-15T23:03:58.305Z,96117.41
2022-09-15T23:06:28.286Z,96120.19
2022-09-15T23:08:58.079Z,96123.22
2022-09-15T23:11:28.768Z,96119.91
2022-09-15T23:13:57.343Z,96118.09
2022-09-15T23:16:28.569Z,96121.56
2022-09-15T23:18:56.595Z,96119.75
2022-09-15T23:21:24.578Z,96113.16
2022-09-15T23:23:55.181Z,96123.78
2022-09-15T23:26:25.283Z,96121.66
2022-09-15T23:28:54.940Z,96117.19
2022-09-15T23:31:23.095Z,96109.38
2022-09-15T23:33:51.129Z,96109.06
2022-09-15T23:36:20.459Z,96113.09
2022-09-15T23:38:49.268Z,96112.25
2022-09-15T23:41:18.198Z,96111.25
2022-09-15T23:43:47.176Z,96103.00
2022-09-15T23:46:17.387Z,96105.50
2022-09-15T23:48:45.835Z,96109.28
2022-09-15T23:51:13.883Z,96114.59
2022-09-15T23:53:41.844Z,96109.00
2022-09-15T23:56:09.881Z,96114.00
2022-09-15T23:58:37.923Z,96100.75
